createdAt,value
2018-10-18T00:04:34.111Z,89.79
2018-10-18T00:10:38.977Z,89.38
2018-10-18T00:16:44.107Z,88.62
2018-10-18T00:22:49.588Z,88.84
2018-10-18T00:28:54.261Z,88.99
2018-10-18T00:34:58.977Z,89.27
2018-10-18T00:41:03.729Z,89.86
2018-10-18T00:47:08.408Z,90.21
2018-10-18T00:53:13.096Z,90.53
2018-10-18T00:59:17.876Z,89.75
2018-10-18T01:05:22.576Z,89.67
2018-10-18T01:11:27.379Z,88.60
2018-10-18T01:17:32.844Z,88.30
2018-10-18T01:23:37.795Z,88.76
2018-10-18T01:29:42.557Z,89.66
2018-10-18T01:35:47.304Z,90.56
2018-10-18T01:41:52.162Z,90.62
2018-10-18T01:47:56.971Z,90.53
2018-10-18T01:54:02.032Z,90.69
2018-10-18T02:00:08.548Z,90.39
2018-10-18T02:06:13.386Z,90.03
2018-10-18T02:12:18.155Z,90.48
2018-10-18T02:18:22.948Z,90.38
2018-10-18T02:24:28.300Z,91.08
2018-10-18T02:30:34.020Z,91.40
2018-10-18T02:36:38.873Z,91.24
2018-10-18T02:42:43.596Z,91.32
2018-10-18T02:48:48.860Z,90.61
2018-10-18T02:54:53.558Z,91.24
2018-10-18T03:00:58.606Z,91.32
2018-10-18T03:07:03.641Z,90.66
2018-10-18T03:13:08.416Z,90.26
2018-10-18T03:19:13.488Z,90.94
2018-10-18T03:25:18.562Z,89.99
2018-10-18T03:31:23.673Z,91.78
2018-10-18T03:37:28.400Z,92.58
2018-10-18T03:43:33.085Z,92.78
2018-10-18T03:49:37.847Z,93.36
2018-10-18T03:55:42.679Z,92.76
2018-10-18T04:01:47.492Z,92.99
2018-10-18T04:07:52.253Z,93.98
2018-10-18T04:13:57.422Z,93.77
2018-10-18T04:20:02.263Z,93.84
2018-10-18T04:26:07.003Z,93.22
2018-10-18T04:32:11.762Z,92.38
2018-10-18T04:38:16.482Z,92.95
2018-10-18T04:44:21.850Z,93.70
2018-10-18T04:50:26.596Z,92.96
2018-10-18T04:56:31.332Z,92.07
2018-10-18T05:02:36.417Z,91.56
2018-10-18T05:08:41.191Z,91.61
2018-10-18T05:14:45.888Z,91.61
2018-10-18T05:20:50.643Z,92.26
2018-10-18T05:26:55.760Z,92.37
2018-10-18T05:33:00.518Z,93.28
2018-10-18T05:39:08.872Z,93.69
2018-10-18T05:45:13.742Z,93.37
2018-10-18T05:51:18.785Z,93.49
2018-10-18T05:57:23.671Z,92.95
2018-10-18T06:03:29.036Z,92.72
2018-10-18T06:09:35.209Z,92.75
2018-10-18T06:15:39.931Z,93.11
2018-10-18T06:21:45.046Z,93.19
2018-10-18T06:27:50.260Z,92.42
2018-10-18T06:33:54.994Z,91.68
2018-10-18T06:39:59.799Z,91.79
2018-10-18T06:46:04.786Z,91.11
2018-10-18T06:52:09.495Z,91.76
2018-10-18T06:58:15.281Z,91.12
2018-10-18T07:04:20.028Z,91.32
2018-10-18T07:10:24.741Z,90.73
2018-10-18T07:16:29.978Z,90.63
2018-10-18T07:22:34.678Z,89.75
2018-10-18T07:28:39.373Z,88.37
2018-10-18T07:34:44.088Z,88.97
2018-10-18T07:40:48.947Z,86.65
2018-10-18T07:46:53.725Z,86.16
2018-10-18T07:52:58.434Z,84.67
2018-10-18T07:59:03.975Z,83.77
2018-10-18T08:05:09.803Z,81.88
2018-10-18T08:11:15.204Z,80.60
2018-10-18T08:17:20.042Z,81.05
2018-10-18T08:23:24.796Z,80.66
2018-10-18T08:29:30.103Z,82.64
2018-10-18T08:35:34.896Z,82.36
2018-10-18T08:41:40.269Z,81.76
2018-10-18T08:47:45.394Z,82.90
2018-10-18T08:53:50.102Z,83.79
2018-10-18T08:59:54.986Z,83.60
2018-10-18T09:05:59.700Z,84.52
2018-10-18T09:12:04.523Z,85.78
2018-10-18T09:18:09.271Z,86.17
2018-10-18T09:24:14.066Z,86.35
2018-10-18T09:30:18.885Z,88.31
2018-10-18T09:36:23.727Z,89.22
2018-10-18T09:42:28.521Z,88.83
2018-10-18T09:48:33.857Z,88.48
2018-10-18T09:54:38.750Z,87.95
2018-10-18T10:00:48.612Z,87.28
2018-10-18T10:06:54.004Z,86.42
2018-10-18T10:12:58.785Z,82.48
2018-10-18T10:19:04.409Z,79.32
2018-10-18T10:25:09.258Z,77.57
2018-10-18T10:31:14.652Z,75.96
2018-10-18T10:37:19.762Z,75.37
2018-10-18T10:43:24.574Z,72.89
2018-10-18T10:49:29.368Z,70.32
2018-10-18T10:55:34.129Z,67.75
2018-10-18T11:01:38.928Z,66.37
2018-10-18T11:07:43.985Z,65.70
2018-10-18T11:13:49.065Z,63.74
2018-10-18T11:19:53.947Z,61.38
2018-10-18T11:25:58.854Z,61.89
2018-10-18T11:32:03.661Z,60.52
2018-10-18T11:38:08.715Z,60.90
2018-10-18T11:44:13.805Z,61.75
2018-10-18T11:50:18.505Z,62.86
2018-10-18T11:56:23.338Z,62.40
2018-10-18T12:02:28.608Z,60.35
2018-10-18T12:08:33.713Z,61.64
2018-10-18T12:14:38.401Z,60.93
2018-10-18T12:20:43.268Z,61.31
2018-10-18T12:26:48.022Z,58.29
2018-10-18T12:32:52.737Z,56.05
2018-10-18T12:38:57.812Z,57.00
2018-10-18T12:45:02.713Z,58.60
2018-10-18T12:51:07.427Z,59.28
2018-10-18T12:57:13.771Z,58.79
2018-10-18T13:03:18.486Z,58.70
2018-10-18T13:09:23.391Z,57.49
2018-10-18T13:15:28.463Z,57.02
2018-10-18T13:21:33.173Z,57.87
2018-10-18T13:27:38.300Z,59.11
2018-10-18T13:33:43.388Z,59.38
2018-10-18T13:39:50.962Z,59.28
2018-10-18T13:45:55.730Z,59.26
2018-10-18T13:52:01.336Z,58.41
2018-10-18T13:58:06.761Z,58.08
2018-10-18T14:04:11.517Z,58.56
2018-10-18T14:10:16.154Z,61.20
2018-10-18T14:16:20.942Z,62.82
2018-10-18T14:22:25.719Z,63.79
2018-10-18T14:28:30.381Z,65.27
2018-10-18T14:34:35.468Z,64.72
2018-10-18T14:40:40.579Z,65.51
2018-10-18T14:46:45.516Z,65.76
2018-10-18T14:52:50.238Z,65.55
2018-10-18T14:58:55.722Z,65.16
2018-10-18T15:05:00.647Z,64.48
2018-10-18T15:11:06.383Z,61.21
2018-10-18T15:17:11.173Z,64.07
2018-10-18T15:23:17.146Z,64.36
2018-10-18T15:29:21.787Z,64.67
2018-10-18T15:35:27.118Z,64.89
2018-10-18T15:41:31.853Z,64.54
2018-10-18T15:47:36.730Z,63.87
2018-10-18T15:53:42.076Z,65.39
2018-10-18T15:59:47.746Z,65.97
2018-10-18T16:05:52.853Z,66.88
2018-10-18T16:11:57.587Z,68.26
2018-10-18T16:18:02.690Z,69.63
2018-10-18T16:24:07.656Z,71.51
2018-10-18T16:30:12.773Z,72.62
2018-10-18T16:36:17.606Z,72.45
2018-10-18T16:42:22.461Z,73.97
2018-10-18T16:48:27.569Z,74.06
2018-10-18T16:54:32.301Z,74.82
2018-10-18T17:00:37.029Z,75.79
2018-10-18T17:06:42.134Z,76.26
2018-10-18T17:12:47.272Z,75.82
2018-10-18T17:18:51.988Z,76.15
2018-10-18T17:24:56.787Z,78.00
2018-10-18T17:31:01.565Z,78.76
2018-10-18T17:37:06.731Z,78.30
2018-10-18T17:43:12.244Z,78.52
2018-10-18T17:49:17.739Z,79.00
2018-10-18T17:55:22.984Z,78.23
2018-10-18T18:01:28.122Z,78.65
2018-10-18T18:07:32.964Z,79.26
2018-10-18T18:13:38.636Z,78.33
2018-10-18T18:19:44.897Z,78.52
2018-10-18T18:25:50.088Z,78.34
2018-10-18T18:31:54.985Z,78.68
2018-10-18T18:37:59.792Z,79.56
2018-10-18T18:44:04.955Z,80.58
2018-10-18T18:50:10.102Z,80.58
2018-10-18T18:56:15.200Z,80.45
2018-10-18T19:02:19.913Z,80.77
2018-10-18T19:08:24.675Z,80.36
2018-10-18T19:14:29.436Z,81.09
2018-10-18T19:20:34.212Z,81.89
2018-10-18T19:26:39.029Z,82.76
2018-10-18T19:32:44.058Z,82.99
2018-10-18T19:38:49.515Z,83.74
2018-10-18T19:44:54.571Z,83.79
2018-10-18T19:50:59.284Z,83.87
2018-10-18T19:57:04.060Z,83.95
2018-10-18T20:03:08.880Z,84.43
2018-10-18T20:09:14.080Z,83.66
2018-10-18T20:15:18.921Z,84.03
2018-10-18T20:21:24.510Z,83.47
2018-10-18T20:27:29.532Z,84.54
2018-10-18T20:33:34.397Z,83.90
2018-10-18T20:39:39.270Z,84.02
2018-10-18T20:45:43.935Z,84.59
2018-10-18T20:51:48.970Z,84.82
2018-10-18T20:57:53.758Z,85.13
2018-10-18T21:03:59.118Z,85.08
2018-10-18T21:10:04.009Z,85.16
2018-10-18T21:16:09.033Z,85.25
2018-10-18T21:22:13.826Z,85.69
2018-10-18T21:28:18.594Z,86.63
2018-10-18T21:34:23.795Z,87.06
2018-10-18T21:40:28.635Z,87.12
2018-10-18T21:46:33.743Z,85.72
2018-10-18T21:52:39.307Z,85.36
2018-10-18T21:58:44.364Z,85.35
2018-10-18T22:04:49.092Z,85.17
2018-10-18T22:10:53.932Z,84.21
2018-10-18T22:16:59.068Z,84.33
2018-10-18T22:23:04.192Z,83.66
2018-10-18T22:29:09.096Z,84.53
2018-10-18T22:35:14.127Z,84.42
2018-10-18T22:41:18.877Z,84.17
2018-10-18T22:47:23.757Z,83.33
2018-10-18T22:53:28.771Z,83.55
2018-10-18T22:59:33.621Z,83.44
2018-10-18T23:05:38.727Z,83.63
2018-10-18T23:11:43.478Z,83.51
2018-10-18T23:17:48.344Z,83.46
2018-10-18T23:23:53.150Z,83.87
2018-10-18T23:29:58.366Z,83.94
2018-10-18T23:36:03.448Z,84.17
2018-10-18T23:42:08.207Z,84.11
2018-10-18T23:48:19.554Z,83.91
2018-10-18T23:54:24.325Z,84.19
